sensor_id;sensor_type;location;lat;lon;timestamp;temperature;humidity
35692;DHT22;26978;44.830;-0.674;2023-03-13T00:00:50;13.20;99.90
35692;DHT22;26978;44.830;-0.674;2023-03-13T00:03:16;13.20;99.90
35692;DHT22;26978;44.830;-0.674;2023-03-13T00:05:41;13.10;99.90
35692;DHT22;26978;44.830;-0.674;2023-03-13T00:08:07;13.10;99.90
35692;DHT22;26978;44.830;-0.674;2023-03-13T00:10:35;13.10;99.90
35692;DHT22;26978;44.830;-0.674;2023-03-13T00:13:00;13.20;99.90
35692;DHT22;26978;44.830;-0.674;2023-03-13T00:15:26;13.30;99.90
35692;DHT22;26978;44.830;-0.674;2023-03-13T00:17:51;13.40;99.90
35692;DHT22;26978;44.830;-0.674;2023-03-13T00:20:17;13.40;99.90
35692;DHT22;26978;44.830;-0.674;2023-03-13T00:22:42;13.50;99.90
35692;DHT22;26978;44.830;-0.674;2023-03-13T00:25:08;13.50;99.90
35692;DHT22;26978;44.830;-0.674;2023-03-13T00:27:34;13.50;99.90
35692;DHT22;26978;44.830;-0.674;2023-03-13T00:29:59;13.50;99.90
35692;DHT22;26978;44.830;-0.674;2023-03-13T00:32:25;13.50;99.90
35692;DHT22;26978;44.830;-0.674;2023-03-13T00:34:50;13.50;99.90
35692;DHT22;26978;44.830;-0.674;2023-03-13T00:37:16;13.50;99.90
35692;DHT22;26978;44.830;-0.674;2023-03-13T00:39:41;13.50;99.90
35692;DHT22;26978;44.830;-0.674;2023-03-13T00:42:07;13.50;99.90
35692;DHT22;26978;44.830;-0.674;2023-03-13T00:44:32;13.50;99.90
35692;DHT22;26978;44.830;-0.674;2023-03-13T00:46:58;13.60;99.90
35692;DHT22;26978;44.830;-0.674;2023-03-13T00:49:23;13.60;99.90
35692;DHT22;26978;44.830;-0.674;2023-03-13T00:51:49;13.60;99.90
35692;DHT22;26978;44.830;-0.674;2023-03-13T00:54:14;13.50;99.90
35692;DHT22;26978;44.830;-0.674;2023-03-13T00:56:40;13.50;99.90
35692;DHT22;26978;44.830;-0.674;2023-03-13T00:59:05;13.50;99.90
35692;DHT22;26978;44.830;-0.674;2023-03-13T01:01:32;13.50;99.90
35692;DHT22;26978;44.830;-0.674;2023-03-13T01:04:00;13.40;99.90
35692;DHT22;26978;44.830;-0.674;2023-03-13T01:06:27;13.50;99.90
35692;DHT22;26978;44.830;-0.674;2023-03-13T01:08:53;13.50;99.90
35692;DHT22;26978;44.830;-0.674;2023-03-13T01:11:20;13.50;99.90
35692;DHT22;26978;44.830;-0.674;2023-03-13T01:13:46;13.50;99.90
35692;DHT22;26978;44.830;-0.674;2023-03-13T01:16:13;13.60;99.90
35692;DHT22;26978;44.830;-0.674;2023-03-13T01:18:40;13.60;99.90
35692;DHT22;26978;44.830;-0.674;2023-03-13T01:21:06;13.70;99.90
35692;DHT22;26978;44.830;-0.674;2023-03-13T01:23:31;13.70;99.90
35692;DHT22;26978;44.830;-0.674;2023-03-13T01:25:57;13.70;99.90
35692;DHT22;26978;44.830;-0.674;2023-03-13T01:28:23;13.70;99.90
35692;DHT22;26978;44.830;-0.674;2023-03-13T01:30:49;13.70;99.90
35692;DHT22;26978;44.830;-0.674;2023-03-13T01:33:15;13.70;99.90
35692;DHT22;26978;44.830;-0.674;2023-03-13T01:35:40;13.70;99.90
35692;DHT22;26978;44.830;-0.674;2023-03-13T01:38:06;13.70;99.90
35692;DHT22;26978;44.830;-0.674;2023-03-13T01:40:38;13.70;99.90
35692;DHT22;26978;44.830;-0.674;2023-03-13T01:43:11;13.70;99.90
35692;DHT22;26978;44.830;-0.674;2023-03-13T01:48:15;13.70;99.90
35692;DHT22;26978;44.830;-0.674;2023-03-13T01:50:40;13.70;99.90
35692;DHT22;26978;44.830;-0.674;2023-03-13T01:53:06;13.70;99.90
35692;DHT22;26978;44.830;-0.674;2023-03-13T01:55:31;13.60;99.90
35692;DHT22;26978;44.830;-0.674;2023-03-13T01:57:57;13.70;99.90
35692;DHT22;26978;44.830;-0.674;2023-03-13T02:00:25;13.70;99.90
35692;DHT22;26978;44.830;-0.674;2023-03-13T02:02:52;13.80;99.90
35692;DHT22;26978;44.830;-0.674;2023-03-13T02:05:19;13.80;99.90
35692;DHT22;26978;44.830;-0.674;2023-03-13T02:08:00;13.80;99.90
35692;DHT22;26978;44.830;-0.674;2023-03-13T02:10:26;13.80;99.90
35692;DHT22;26978;44.830;-0.674;2023-03-13T02:12:53;13.80;99.90
35692;DHT22;26978;44.830;-0.674;2023-03-13T02:15:19;13.80;99.90
35692;DHT22;26978;44.830;-0.674;2023-03-13T02:17:46;13.80;99.90
35692;DHT22;26978;44.830;-0.674;2023-03-13T02:20:13;13.80;99.90
35692;DHT22;26978;44.830;-0.674;2023-03-13T02:27:51;13.80;99.90
35692;DHT22;26978;44.830;-0.674;2023-03-13T02:30:19;13.80;99.90
35692;DHT22;26978;44.830;-0.674;2023-03-13T02:32:44;13.80;99.90
35692;DHT22;26978;44.830;-0.674;2023-03-13T02:35:11;13.80;99.90
35692;DHT22;26978;44.830;-0.674;2023-03-13T02:37:38;13.70;99.90
35692;DHT22;26978;44.830;-0.674;2023-03-13T02:40:07;13.80;99.90
35692;DHT22;26978;44.830;-0.674;2023-03-13T02:42:40;13.80;99.90
35692;DHT22;26978;44.830;-0.674;2023-03-13T02:45:06;13.80;99.90
35692;DHT22;26978;44.830;-0.674;2023-03-13T02:47:32;13.80;99.90
35692;DHT22;26978;44.830;-0.674;2023-03-13T02:49:58;13.80;99.90
35692;DHT22;26978;44.830;-0.674;2023-03-13T02:52:25;13.80;99.90
35692;DHT22;26978;44.830;-0.674;2023-03-13T02:54:54;13.80;99.90
35692;DHT22;26978;44.830;-0.674;2023-03-13T02:57:22;13.80;99.90
35692;DHT22;26978;44.830;-0.674;2023-03-13T02:59:47;13.80;99.90
35692;DHT22;26978;44.830;-0.674;2023-03-13T03:02:13;13.80;99.90
35692;DHT22;26978;44.830;-0.674;2023-03-13T03:04:38;13.80;99.90
35692;DHT22;26978;44.830;-0.674;2023-03-13T03:07:04;13.90;99.90
35692;DHT22;26978;44.830;-0.674;2023-03-13T03:09:29;13.80;99.90
35692;DHT22;26978;44.830;-0.674;2023-03-13T03:11:55;13.80;99.90
35692;DHT22;26978;44.830;-0.674;2023-03-13T03:14:20;13.80;99.90
35692;DHT22;26978;44.830;-0.674;2023-03-13T03:16:46;13.80;99.90
35692;DHT22;26978;44.830;-0.674;2023-03-13T03:19:11;13.90;99.90
35692;DHT22;26978;44.830;-0.674;2023-03-13T03:21:37;13.80;99.90
35692;DHT22;26978;44.830;-0.674;2023-03-13T03:24:02;13.80;99.90
35692;DHT22;26978;44.830;-0.674;2023-03-13T03:26:28;13.80;99.90
35692;DHT22;26978;44.830;-0.674;2023-03-13T03:28:54;13.80;99.90
35692;DHT22;26978;44.830;-0.674;2023-03-13T03:31:20;13.80;99.90
35692;DHT22;26978;44.830;-0.674;2023-03-13T03:33:45;13.80;99.90
35692;DHT22;26978;44.830;-0.674;2023-03-13T03:36:15;13.70;99.90
35692;DHT22;26978;44.830;-0.674;2023-03-13T03:38:41;13.80;99.90
35692;DHT22;26978;44.830;-0.674;2023-03-13T03:41:08;13.80;99.90
35692;DHT22;26978;44.830;-0.674;2023-03-13T03:43:33;13.80;99.90
35692;DHT22;26978;44.830;-0.674;2023-03-13T03:45:59;13.70;99.90
35692;DHT22;26978;44.830;-0.674;2023-03-13T03:48:25;13.70;99.90
35692;DHT22;26978;44.830;-0.674;2023-03-13T03:50:50;13.70;99.90
35692;DHT22;26978;44.830;-0.674;2023-03-13T03:53:16;13.60;99.90
35692;DHT22;26978;44.830;-0.674;2023-03-13T03:55:41;13.60;99.90
35692;DHT22;26978;44.830;-0.674;2023-03-13T03:58:07;13.60;99.90
35692;DHT22;26978;44.830;-0.674;2023-03-13T04:00:32;13.60;99.90
35692;DHT22;26978;44.830;-0.674;2023-03-13T04:02:58;13.50;99.90
35692;DHT22;26978;44.830;-0.674;2023-03-13T04:05:23;13.50;99.90
35692;DHT22;26978;44.830;-0.674;2023-03-13T04:07:49;13.40;99.90
35692;DHT22;26978;44.830;-0.674;2023-03-13T04:10:15;13.40;99.90
35692;DHT22;26978;44.830;-0.674;2023-03-13T04:12:40;13.40;99.90
35692;DHT22;26978;44.830;-0.674;2023-03-13T04:15:06;13.40;99.90
35692;DHT22;26978;44.830;-0.674;2023-03-13T04:17:31;13.40;99.90
35692;DHT22;26978;44.830;-0.674;2023-03-13T04:19:57;13.40;99.90
35692;DHT22;26978;44.830;-0.674;2023-03-13T04:22:23;13.40;99.90
35692;DHT22;26978;44.830;-0.674;2023-03-13T04:24:49;13.40;99.90
35692;DHT22;26978;44.830;-0.674;2023-03-13T04:27:14;13.40;99.90
35692;DHT22;26978;44.830;-0.674;2023-03-13T04:29:40;13.50;99.90
35692;DHT22;26978;44.830;-0.674;2023-03-13T04:32:05;13.50;99.90
35692;DHT22;26978;44.830;-0.674;2023-03-13T04:34:31;13.50;99.90
35692;DHT22;26978;44.830;-0.674;2023-03-13T04:36:57;13.50;99.90
35692;DHT22;26978;44.830;-0.674;2023-03-13T04:39:22;13.40;99.90
35692;DHT22;26978;44.830;-0.674;2023-03-13T04:41:52;13.40;99.90
35692;DHT22;26978;44.830;-0.674;2023-03-13T04:44:18;13.40;99.90
35692;DHT22;26978;44.830;-0.674;2023-03-13T04:46:44;13.30;99.90
35692;DHT22;26978;44.830;-0.674;2023-03-13T04:49:09;13.30;99.90
35692;DHT22;26978;44.830;-0.674;2023-03-13T04:51:35;13.30;99.90
35692;DHT22;26978;44.830;-0.674;2023-03-13T04:54:00;13.20;99.90
35692;DHT22;26978;44.830;-0.674;2023-03-13T04:56:26;13.20;99.90
35692;DHT22;26978;44.830;-0.674;2023-03-13T04:58:52;13.10;99.90
35692;DHT22;26978;44.830;-0.674;2023-03-13T05:01:17;13.00;99.90
35692;DHT22;26978;44.830;-0.674;2023-03-13T05:03:43;13.00;99.90
35692;DHT22;26978;44.830;-0.674;2023-03-13T05:06:08;13.00;99.90
35692;DHT22;26978;44.830;-0.674;2023-03-13T05:08:34;12.90;99.90
35692;DHT22;26978;44.830;-0.674;2023-03-13T05:11:01;13.00;99.90
35692;DHT22;26978;44.830;-0.674;2023-03-13T05:13:26;12.90;99.90
35692;DHT22;26978;44.830;-0.674;2023-03-13T05:15:52;12.80;99.90
35692;DHT22;26978;44.830;-0.674;2023-03-13T05:18:17;12.80;99.90
35692;DHT22;26978;44.830;-0.674;2023-03-13T05:20:43;12.70;99.90
35692;DHT22;26978;44.830;-0.674;2023-03-13T05:23:08;12.70;99.90
35692;DHT22;26978;44.830;-0.674;2023-03-13T05:25:34;12.70;99.90
35692;DHT22;26978;44.830;-0.674;2023-03-13T05:27:59;12.70;99.90
35692;DHT22;26978;44.830;-0.674;2023-03-13T05:30:25;12.70;99.90
35692;DHT22;26978;44.830;-0.674;2023-03-13T05:32:50;12.70;99.90
35692;DHT22;26978;44.830;-0.674;2023-03-13T05:35:16;12.60;99.90
35692;DHT22;26978;44.830;-0.674;2023-03-13T05:37:41;12.50;99.90
35692;DHT22;26978;44.830;-0.674;2023-03-13T05:40:07;12.50;99.90
35692;DHT22;26978;44.830;-0.674;2023-03-13T05:42:33;12.50;99.90
35692;DHT22;26978;44.830;-0.674;2023-03-13T05:44:59;12.50;99.90
35692;DHT22;26978;44.830;-0.674;2023-03-13T05:47:24;12.50;99.90
35692;DHT22;26978;44.830;-0.674;2023-03-13T05:49:50;12.40;99.90
35692;DHT22;26978;44.830;-0.674;2023-03-13T05:52:15;12.30;99.90
35692;DHT22;26978;44.830;-0.674;2023-03-13T05:54:41;12.20;99.90
35692;DHT22;26978;44.830;-0.674;2023-03-13T05:57:06;12.20;99.90
35692;DHT22;26978;44.830;-0.674;2023-03-13T05:59:32;12.30;99.90
35692;DHT22;26978;44.830;-0.674;2023-03-13T06:01:57;12.20;99.90
35692;DHT22;26978;44.830;-0.674;2023-03-13T06:04:23;12.20;99.90
35692;DHT22;26978;44.830;-0.674;2023-03-13T06:06:48;12.20;99.90
35692;DHT22;26978;44.830;-0.674;2023-03-13T06:09:14;12.30;99.90
35692;DHT22;26978;44.830;-0.674;2023-03-13T06:11:40;12.30;99.90
35692;DHT22;26978;44.830;-0.674;2023-03-13T06:14:06;12.30;99.90
35692;DHT22;26978;44.830;-0.674;2023-03-13T06:16:32;12.20;99.90
35692;DHT22;26978;44.830;-0.674;2023-03-13T06:18:57;12.20;99.90
35692;DHT22;26978;44.830;-0.674;2023-03-13T06:21:23;12.10;99.90
35692;DHT22;26978;44.830;-0.674;2023-03-13T06:23:48;12.20;99.90
35692;DHT22;26978;44.830;-0.674;2023-03-13T06:26:14;12.10;99.90
35692;DHT22;26978;44.830;-0.674;2023-03-13T06:28:39;12.00;99.90
35692;DHT22;26978;44.830;-0.674;2023-03-13T06:31:05;12.00;99.90
35692;DHT22;26978;44.830;-0.674;2023-03-13T06:33:31;11.90;99.90
35692;DHT22;26978;44.830;-0.674;2023-03-13T06:35:58;11.90;99.90
35692;DHT22;26978;44.830;-0.674;2023-03-13T06:38:24;11.90;99.90
35692;DHT22;26978;44.830;-0.674;2023-03-13T06:40:49;11.80;99.90
35692;DHT22;26978;44.830;-0.674;2023-03-13T06:43:15;11.80;99.90
35692;DHT22;26978;44.830;-0.674;2023-03-13T06:45:40;11.90;99.90
35692;DHT22;26978;44.830;-0.674;2023-03-13T06:48:06;11.90;99.90
35692;DHT22;26978;44.830;-0.674;2023-03-13T06:50:31;12.00;99.90
35692;DHT22;26978;44.830;-0.674;2023-03-13T06:52:57;12.10;99.90
35692;DHT22;26978;44.830;-0.674;2023-03-13T06:55:23;12.10;99.90
35692;DHT22;26978;44.830;-0.674;2023-03-13T06:57:49;12.00;99.90
35692;DHT22;26978;44.830;-0.674;2023-03-13T07:00:15;12.00;99.90
35692;DHT22;26978;44.830;-0.674;2023-03-13T07:02:41;12.10;99.90
35692;DHT22;26978;44.830;-0.674;2023-03-13T07:05:06;12.00;99.90
35692;DHT22;26978;44.830;-0.674;2023-03-13T07:07:32;12.10;99.90
35692;DHT22;26978;44.830;-0.674;2023-03-13T07:09:58;12.20;99.90
35692;DHT22;26978;44.830;-0.674;2023-03-13T07:12:23;12.30;99.90
35692;DHT22;26978;44.830;-0.674;2023-03-13T07:14:49;12.30;99.90
35692;DHT22;26978;44.830;-0.674;2023-03-13T07:17:14;12.40;99.90
35692;DHT22;26978;44.830;-0.674;2023-03-13T07:19:40;12.50;99.90
35692;DHT22;26978;44.830;-0.674;2023-03-13T07:22:05;12.50;99.90
35692;DHT22;26978;44.830;-0.674;2023-03-13T07:24:31;12.60;99.90
35692;DHT22;26978;44.830;-0.674;2023-03-13T07:26:56;12.60;99.90
35692;DHT22;26978;44.830;-0.674;2023-03-13T07:29:22;12.70;99.90
35692;DHT22;26978;44.830;-0.674;2023-03-13T07:31:47;12.80;99.90
35692;DHT22;26978;44.830;-0.674;2023-03-13T07:34:13;12.80;99.90
35692;DHT22;26978;44.830;-0.674;2023-03-13T07:36:39;12.90;99.90
35692;DHT22;26978;44.830;-0.674;2023-03-13T07:39:06;12.90;99.90
35692;DHT22;26978;44.830;-0.674;2023-03-13T07:41:31;13.00;99.90
35692;DHT22;26978;44.830;-0.674;2023-03-13T07:43:57;13.00;99.90
35692;DHT22;26978;44.830;-0.674;2023-03-13T07:46:22;13.00;99.90
35692;DHT22;26978;44.830;-0.674;2023-03-13T07:48:48;13.00;99.90
35692;DHT22;26978;44.830;-0.674;2023-03-13T07:51:15;13.00;99.90
35692;DHT22;26978;44.830;-0.674;2023-03-13T07:53:41;13.30;99.90
35692;DHT22;26978;44.830;-0.674;2023-03-13T07:56:09;13.30;99.90
35692;DHT22;26978;44.830;-0.674;2023-03-13T07:58:35;13.30;99.90
35692;DHT22;26978;44.830;-0.674;2023-03-13T08:03:39;13.40;99.90
35692;DHT22;26978;44.830;-0.674;2023-03-13T08:06:09;13.40;99.90
35692;DHT22;26978;44.830;-0.674;2023-03-13T08:08:35;13.50;99.90
35692;DHT22;26978;44.830;-0.674;2023-03-13T08:11:02;13.70;99.90
35692;DHT22;26978;44.830;-0.674;2023-03-13T08:13:28;13.80;99.90
35692;DHT22;26978;44.830;-0.674;2023-03-13T08:16:01;14.00;99.90
35692;DHT22;26978;44.830;-0.674;2023-03-13T08:18:26;14.10;99.90
35692;DHT22;26978;44.830;-0.674;2023-03-13T08:20:52;14.20;99.90
35692;DHT22;26978;44.830;-0.674;2023-03-13T08:23:17;14.30;99.90
35692;DHT22;26978;44.830;-0.674;2023-03-13T08:25:43;14.50;99.90
35692;DHT22;26978;44.830;-0.674;2023-03-13T08:28:08;14.70;99.90
35692;DHT22;26978;44.830;-0.674;2023-03-13T08:30:35;14.90;99.90
35692;DHT22;26978;44.830;-0.674;2023-03-13T08:33:01;15.00;99.90
35692;DHT22;26978;44.830;-0.674;2023-03-13T08:35:27;15.30;99.90
35692;DHT22;26978;44.830;-0.674;2023-03-13T08:37:52;15.40;99.90
35692;DHT22;26978;44.830;-0.674;2023-03-13T08:40:18;15.50;99.90
35692;DHT22;26978;44.830;-0.674;2023-03-13T08:42:43;15.50;99.90
35692;DHT22;26978;44.830;-0.674;2023-03-13T08:45:09;15.50;99.90
35692;DHT22;26978;44.830;-0.674;2023-03-13T08:47:35;15.60;99.90
35692;DHT22;26978;44.830;-0.674;2023-03-13T08:50:00;15.70;99.90
35692;DHT22;26978;44.830;-0.674;2023-03-13T08:52:26;15.90;99.90
35692;DHT22;26978;44.830;-0.674;2023-03-13T08:54:52;16.20;99.90
35692;DHT22;26978;44.830;-0.674;2023-03-13T08:57:17;16.30;99.90
35692;DHT22;26978;44.830;-0.674;2023-03-13T08:59:43;16.20;99.90
35692;DHT22;26978;44.830;-0.674;2023-03-13T09:02:11;16.30;99.90
35692;DHT22;26978;44.830;-0.674;2023-03-13T09:04:36;16.40;99.90
35692;DHT22;26978;44.830;-0.674;2023-03-13T09:07:02;16.50;99.90
35692;DHT22;26978;44.830;-0.674;2023-03-13T09:09:27;16.60;99.90
35692;DHT22;26978;44.830;-0.674;2023-03-13T09:11:53;16.90;99.90
35692;DHT22;26978;44.830;-0.674;2023-03-13T09:14:18;17.00;99.90
35692;DHT22;26978;44.830;-0.674;2023-03-13T09:16:44;17.10;99.90
35692;DHT22;26978;44.830;-0.674;2023-03-13T09:19:10;17.20;99.90
35692;DHT22;26978;44.830;-0.674;2023-03-13T09:21:37;17.40;99.90
35692;DHT22;26978;44.830;-0.674;2023-03-13T09:24:02;17.60;99.90
35692;DHT22;26978;44.830;-0.674;2023-03-13T09:26:28;17.80;99.90
35692;DHT22;26978;44.830;-0.674;2023-03-13T09:28:54;17.90;99.90
35692;DHT22;26978;44.830;-0.674;2023-03-13T09:31:21;17.90;99.90
35692;DHT22;26978;44.830;-0.674;2023-03-13T09:33:47;17.70;99.90
35692;DHT22;26978;44.830;-0.674;2023-03-13T09:36:13;17.70;99.90
35692;DHT22;26978;44.830;-0.674;2023-03-13T09:38:39;17.70;99.90
35692;DHT22;26978;44.830;-0.674;2023-03-13T09:43:41;17.70;99.90
35692;DHT22;26978;44.830;-0.674;2023-03-13T09:46:16;17.60;99.90
35692;DHT22;26978;44.830;-0.674;2023-03-13T09:48:46;17.50;99.90
35692;DHT22;26978;44.830;-0.674;2023-03-13T09:51:17;17.60;99.90
35692;DHT22;26978;44.830;-0.674;2023-03-13T09:56:16;17.70;99.90
35692;DHT22;26978;44.830;-0.674;2023-03-13T09:58:44;17.60;99.90
35692;DHT22;26978;44.830;-0.674;2023-03-13T10:01:20;17.70;99.90
35692;DHT22;26978;44.830;-0.674;2023-03-13T10:03:52;17.80;99.90
35692;DHT22;26978;44.830;-0.674;2023-03-13T10:06:20;17.90;99.90
35692;DHT22;26978;44.830;-0.674;2023-03-13T10:08:46;18.10;99.90
35692;DHT22;26978;44.830;-0.674;2023-03-13T10:11:32;18.30;99.90
35692;DHT22;26978;44.830;-0.674;2023-03-13T10:14:04;18.30;99.90
35692;DHT22;26978;44.830;-0.674;2023-03-13T10:16:40;18.30;99.90
35692;DHT22;26978;44.830;-0.674;2023-03-13T10:19:16;18.30;99.90
35692;DHT22;26978;44.830;-0.674;2023-03-13T10:21:44;18.40;99.90
35692;DHT22;26978;44.830;-0.674;2023-03-13T10:24:13;18.60;99.90
35692;DHT22;26978;44.830;-0.674;2023-03-13T10:26:41;18.60;99.90
35692;DHT22;26978;44.830;-0.674;2023-03-13T10:29:19;18.80;99.90
35692;DHT22;26978;44.830;-0.674;2023-03-13T10:31:45;18.90;99.90
35692;DHT22;26978;44.830;-0.674;2023-03-13T10:34:13;18.80;99.90
35692;DHT22;26978;44.830;-0.674;2023-03-13T10:36:43;18.90;99.90
35692;DHT22;26978;44.830;-0.674;2023-03-13T10:39:16;18.90;99.90
35692;DHT22;26978;44.830;-0.674;2023-03-13T10:41:42;18.90;99.90
35692;DHT22;26978;44.830;-0.674;2023-03-13T10:44:14;19.10;99.90
35692;DHT22;26978;44.830;-0.674;2023-03-13T10:46:42;19.30;99.90
35692;DHT22;26978;44.830;-0.674;2023-03-13T10:49:15;19.60;99.90
35692;DHT22;26978;44.830;-0.674;2023-03-13T10:51:45;19.80;99.90
35692;DHT22;26978;44.830;-0.674;2023-03-13T10:56:48;19.70;99.90
35692;DHT22;26978;44.830;-0.674;2023-03-13T10:59:23;19.80;99.90
35692;DHT22;26978;44.830;-0.674;2023-03-13T11:01:49;19.90;99.90
35692;DHT22;26978;44.830;-0.674;2023-03-13T11:06:57;19.90;99.90
35692;DHT22;26978;44.830;-0.674;2023-03-13T11:09:23;19.90;99.90
35692;DHT22;26978;44.830;-0.674;2023-03-13T11:11:51;19.90;99.90
35692;DHT22;26978;44.830;-0.674;2023-03-13T11:14:22;20.00;99.90
35692;DHT22;26978;44.830;-0.674;2023-03-13T11:16:51;19.90;99.90
35692;DHT22;26978;44.830;-0.674;2023-03-13T11:27:38;20.00;99.90
35692;DHT22;26978;44.830;-0.674;2023-03-13T11:32:20;20.00;99.90
35692;DHT22;26978;44.830;-0.674;2023-03-13T11:34:49;20.10;99.90
35692;DHT22;26978;44.830;-0.674;2023-03-13T11:37:16;20.00;99.90
35692;DHT22;26978;44.830;-0.674;2023-03-13T11:42:20;19.90;99.90
35692;DHT22;26978;44.830;-0.674;2023-03-13T12:01:42;19.20;99.90
35692;DHT22;26978;44.830;-0.674;2023-03-13T12:04:16;19.10;99.90
35692;DHT22;26978;44.830;-0.674;2023-03-13T12:06:46;19.10;99.90
35692;DHT22;26978;44.830;-0.674;2023-03-13T12:14:21;19.20;99.90
35692;DHT22;26978;44.830;-0.674;2023-03-13T12:19:44;19.40;99.90
35692;DHT22;26978;44.830;-0.674;2023-03-13T12:22:15;19.40;99.90
35692;DHT22;26978;44.830;-0.674;2023-03-13T12:24:45;19.40;99.90
35692;DHT22;26978;44.830;-0.674;2023-03-13T12:27:25;19.50;99.90
35692;DHT22;26978;44.830;-0.674;2023-03-13T12:37:50;19.80;99.90
35692;DHT22;26978;44.830;-0.674;2023-03-13T12:43:02;19.70;99.90
35692;DHT22;26978;44.830;-0.674;2023-03-13T12:45:29;19.80;99.90
35692;DHT22;26978;44.830;-0.674;2023-03-13T12:48:07;20.00;99.90
35692;DHT22;26978;44.830;-0.674;2023-03-13T12:58:48;20.10;99.90
35692;DHT22;26978;44.830;-0.674;2023-03-13T13:01:26;20.00;99.90
35692;DHT22;26978;44.830;-0.674;2023-03-13T13:04:12;19.80;99.90
35692;DHT22;26978;44.830;-0.674;2023-03-13T13:06:59;19.80;99.90
35692;DHT22;26978;44.830;-0.674;2023-03-13T13:09:28;19.90;99.90
35692;DHT22;26978;44.830;-0.674;2023-03-13T13:14:53;19.90;99.90
35692;DHT22;26978;44.830;-0.674;2023-03-13T13:17:21;19.80;99.90
35692;DHT22;26978;44.830;-0.674;2023-03-13T13:19:48;19.70;99.90
35692;DHT22;26978;44.830;-0.674;2023-03-13T13:30:03;20.40;99.90
35692;DHT22;26978;44.830;-0.674;2023-03-13T13:37:26;20.60;99.90
35692;DHT22;26978;44.830;-0.674;2023-03-13T13:39:53;20.50;99.90
35692;DHT22;26978;44.830;-0.674;2023-03-13T13:47:45;19.50;99.90
35692;DHT22;26978;44.830;-0.674;2023-03-13T13:52:42;20.00;99.90
35692;DHT22;26978;44.830;-0.674;2023-03-13T13:57:46;20.20;99.90
35692;DHT22;26978;44.830;-0.674;2023-03-13T14:00:24;19.70;99.90
35692;DHT22;26978;44.830;-0.674;2023-03-13T14:02:51;19.60;99.90
35692;DHT22;26978;44.830;-0.674;2023-03-13T14:05:19;19.50;99.90
35692;DHT22;26978;44.830;-0.674;2023-03-13T14:12:52;19.40;99.90
35692;DHT22;26978;44.830;-0.674;2023-03-13T14:15:19;19.30;99.90
35692;DHT22;26978;44.830;-0.674;2023-03-13T14:21:14;19.20;99.90
35692;DHT22;26978;44.830;-0.674;2023-03-13T14:23:09;19.60;99.90
35692;DHT22;26978;44.830;-0.674;2023-03-13T14:25:42;20.10;99.90
35692;DHT22;26978;44.830;-0.674;2023-03-13T14:28:42;20.60;99.90
35692;DHT22;26978;44.830;-0.674;2023-03-13T14:30:59;19.90;99.90
35692;DHT22;26978;44.830;-0.674;2023-03-13T14:33:25;19.50;99.90
35692;DHT22;26978;44.830;-0.674;2023-03-13T14:35:53;19.20;99.90
35692;DHT22;26978;44.830;-0.674;2023-03-13T14:38:20;18.90;99.90
35692;DHT22;26978;44.830;-0.674;2023-03-13T14:40:46;18.80;99.90
35692;DHT22;26978;44.830;-0.674;2023-03-13T14:45:57;18.80;99.90
35692;DHT22;26978;44.830;-0.674;2023-03-13T14:48:26;18.80;99.90
35692;DHT22;26978;44.830;-0.674;2023-03-13T14:50:56;18.80;99.90
35692;DHT22;26978;44.830;-0.674;2023-03-13T14:53:24;19.30;99.90
35692;DHT22;26978;44.830;-0.674;2023-03-13T14:56:08;19.20;99.90
35692;DHT22;26978;44.830;-0.674;2023-03-13T14:58:33;18.90;99.90
35692;DHT22;26978;44.830;-0.674;2023-03-13T15:01:22;18.90;99.90
35692;DHT22;26978;44.830;-0.674;2023-03-13T15:03:45;19.40;99.90
35692;DHT22;26978;44.830;-0.674;2023-03-13T15:08:37;19.80;99.90
35692;DHT22;26978;44.830;-0.674;2023-03-13T15:11:15;19.10;99.90
35692;DHT22;26978;44.830;-0.674;2023-03-13T15:13:42;18.60;99.90
35692;DHT22;26978;44.830;-0.674;2023-03-13T15:16:17;18.40;99.90
35692;DHT22;26978;44.830;-0.674;2023-03-13T15:18:44;18.30;99.90
35692;DHT22;26978;44.830;-0.674;2023-03-13T15:23:39;18.30;99.90
35692;DHT22;26978;44.830;-0.674;2023-03-13T15:26:05;19.00;99.90
35692;DHT22;26978;44.830;-0.674;2023-03-13T15:28:30;20.20;99.90
35692;DHT22;26978;44.830;-0.674;2023-03-13T15:30:56;21.10;99.90
35692;DHT22;26978;44.830;-0.674;2023-03-13T15:33:22;20.30;99.90
35692;DHT22;26978;44.830;-0.674;2023-03-13T15:35:50;19.40;99.90
35692;DHT22;26978;44.830;-0.674;2023-03-13T15:38:16;18.30;99.90
35692;DHT22;26978;44.830;-0.674;2023-03-13T15:40:43;17.70;99.90
35692;DHT22;26978;44.830;-0.674;2023-03-13T15:43:09;17.30;99.90
35692;DHT22;26978;44.830;-0.674;2023-03-13T15:45:35;17.10;99.90
35692;DHT22;26978;44.830;-0.674;2023-03-13T15:48:02;17.00;99.90
35692;DHT22;26978;44.830;-0.674;2023-03-13T15:50:27;16.80;99.90
35692;DHT22;26978;44.830;-0.674;2023-03-13T15:52:56;16.60;99.90
35692;DHT22;26978;44.830;-0.674;2023-03-13T15:55:23;16.30;99.90
35692;DHT22;26978;44.830;-0.674;2023-03-13T15:57:50;16.00;99.90
35692;DHT22;26978;44.830;-0.674;2023-03-13T16:00:22;15.20;99.90
35692;DHT22;26978;44.830;-0.674;2023-03-13T16:02:48;14.50;99.90
35692;DHT22;26978;44.830;-0.674;2023-03-13T16:05:14;14.40;99.90
35692;DHT22;26978;44.830;-0.674;2023-03-13T16:07:40;14.40;99.90
35692;DHT22;26978;44.830;-0.674;2023-03-13T16:10:11;14.30;99.90
35692;DHT22;26978;44.830;-0.674;2023-03-13T16:12:38;14.10;99.90
35692;DHT22;26978;44.830;-0.674;2023-03-13T16:15:03;13.90;99.90
35692;DHT22;26978;44.830;-0.674;2023-03-13T16:17:29;13.80;99.90
35692;DHT22;26978;44.830;-0.674;2023-03-13T16:19:56;13.70;99.90
35692;DHT22;26978;44.830;-0.674;2023-03-13T16:22:21;13.70;99.90
35692;DHT22;26978;44.830;-0.674;2023-03-13T16:24:47;13.60;99.90
35692;DHT22;26978;44.830;-0.674;2023-03-13T16:27:14;13.60;99.90
35692;DHT22;26978;44.830;-0.674;2023-03-13T16:29:40;13.50;99.90
35692;DHT22;26978;44.830;-0.674;2023-03-13T16:32:05;13.50;99.90
35692;DHT22;26978;44.830;-0.674;2023-03-13T16:34:31;13.30;99.90
35692;DHT22;26978;44.830;-0.674;2023-03-13T16:36:56;13.10;99.90
35692;DHT22;26978;44.830;-0.674;2023-03-13T16:39:22;12.80;99.90
35692;DHT22;26978;44.830;-0.674;2023-03-13T16:41:47;12.70;99.90
35692;DHT22;26978;44.830;-0.674;2023-03-13T16:44:13;12.70;99.90
35692;DHT22;26978;44.830;-0.674;2023-03-13T16:46:39;12.40;99.90
35692;DHT22;26978;44.830;-0.674;2023-03-13T16:49:06;12.30;99.90
35692;DHT22;26978;44.830;-0.674;2023-03-13T16:51:32;12.20;99.90
35692;DHT22;26978;44.830;-0.674;2023-03-13T16:53:57;12.20;99.90
35692;DHT22;26978;44.830;-0.674;2023-03-13T16:56:25;12.00;99.90
35692;DHT22;26978;44.830;-0.674;2023-03-13T16:58:52;12.00;99.90
35692;DHT22;26978;44.830;-0.674;2023-03-13T17:01:18;12.10;99.90
35692;DHT22;26978;44.830;-0.674;2023-03-13T17:03:43;12.00;99.90
35692;DHT22;26978;44.830;-0.674;2023-03-13T17:06:20;12.10;99.90
35692;DHT22;26978;44.830;-0.674;2023-03-13T17:08:46;12.10;99.90
35692;DHT22;26978;44.830;-0.674;2023-03-13T17:11:12;12.10;99.90
35692;DHT22;26978;44.830;-0.674;2023-03-13T17:13:40;12.10;99.90